createdAt,value
2022-10-26T00:01:22.122Z,13.48
2022-10-26T00:03:49.950Z,13.47
2022-10-26T00:06:19.661Z,13.45
2022-10-26T00:08:49.648Z,13.42
2022-10-26T00:11:17.445Z,13.40
2022-10-26T00:13:46.473Z,13.36
2022-10-26T00:16:16.529Z,13.33
2022-10-26T00:18:44.554Z,13.30
2022-10-26T00:21:13.037Z,13.29
2022-10-26T00:23:40.715Z,13.28
2022-10-26T00:26:10.254Z,13.23
2022-10-26T00:28:37.943Z,13.27
2022-10-26T00:31:07.971Z,13.24
2022-10-26T00:33:36.371Z,13.26
2022-10-26T00:36:04.085Z,13.27
2022-10-26T00:38:31.739Z,13.30
2022-10-26T00:40:59.422Z,13.33
2022-10-26T00:43:40.976Z,13.35
2022-10-26T00:46:15.001Z,13.38
2022-10-26T00:48:45.738Z,13.38
2022-10-26T00:51:18.523Z,13.41
2022-10-26T00:53:46.201Z,13.42
2022-10-26T00:56:14.073Z,13.44
2022-10-26T00:58:43.559Z,13.46
2022-10-26T01:01:11.696Z,13.48
2022-10-26T01:03:39.882Z,13.47
2022-10-26T01:06:08.192Z,13.46
2022-10-26T01:08:35.987Z,13.50
2022-10-26T01:11:04.537Z,13.50
2022-10-26T01:13:35.801Z,13.46
2022-10-26T01:16:30.411Z,13.48
2022-10-26T01:19:07.170Z,13.50
2022-10-26T01:21:45.393Z,13.50
2022-10-26T01:24:24.119Z,13.47
2022-10-26T01:27:05.640Z,13.51
2022-10-26T01:30:04.392Z,13.52
2022-10-26T01:32:35.721Z,13.50
2022-10-26T01:35:07.793Z,13.52
2022-10-26T01:37:40.409Z,13.52
2022-10-26T01:40:11.906Z,13.52
2022-10-26T01:42:43.660Z,13.52
2022-10-26T01:45:13.242Z,13.52
2022-10-26T01:47:42.288Z,13.52
2022-10-26T01:50:11.404Z,13.45
2022-10-26T01:52:39.327Z,13.50
2022-10-26T01:55:28.628Z,13.52
2022-10-26T01:58:04.229Z,13.48
2022-10-26T02:00:36.975Z,13.53
2022-10-26T02:03:13.823Z,13.53
2022-10-26T02:05:55.268Z,13.53
2022-10-26T02:08:29.515Z,13.55
2022-10-26T02:11:05.195Z,13.49
2022-10-26T02:13:36.704Z,13.54
2022-10-26T02:16:15.733Z,13.50
2022-10-26T02:18:48.518Z,13.56
2022-10-26T02:21:19.025Z,13.56
2022-10-26T02:23:49.152Z,13.57
2022-10-26T02:26:19.297Z,13.56
2022-10-26T02:28:49.692Z,13.51
2022-10-26T02:31:18.611Z,13.57
2022-10-26T02:36:25.787Z,13.57
2022-10-26T02:38:54.288Z,13.59
2022-10-26T02:41:23.170Z,13.58
2022-10-26T02:43:54.777Z,13.58
2022-10-26T02:46:24.745Z,13.59
2022-10-26T02:48:53.915Z,13.58
2022-10-26T02:51:27.844Z,13.61
2022-10-26T02:53:59.153Z,13.61
2022-10-26T02:56:29.737Z,13.59
2022-10-26T02:59:01.234Z,13.59
2022-10-26T03:01:29.680Z,13.61
2022-10-26T03:03:59.872Z,13.61
2022-10-26T03:06:27.720Z,13.60
2022-10-26T03:08:55.399Z,13.60
2022-10-26T03:11:23.052Z,13.61
2022-10-26T03:13:50.745Z,13.62
2022-10-26T03:16:19.380Z,13.63
2022-10-26T03:18:46.994Z,13.64
2022-10-26T03:21:16.120Z,13.66
2022-10-26T03:23:43.741Z,13.66
2022-10-26T03:26:11.390Z,13.68
2022-10-26T03:28:39.010Z,13.69
2022-10-26T03:31:07.268Z,13.69
2022-10-26T03:33:34.979Z,13.70
2022-10-26T03:36:02.722Z,13.70
2022-10-26T03:38:31.829Z,13.70
2022-10-26T03:40:59.434Z,13.72
2022-10-26T03:43:27.067Z,13.71
2022-10-26T03:45:54.705Z,13.71
2022-10-26T03:48:22.297Z,13.71
2022-10-26T03:50:49.943Z,13.68
2022-10-26T03:53:17.623Z,13.73
2022-10-26T03:55:46.825Z,13.73
2022-10-26T03:58:14.516Z,13.73
2022-10-26T04:00:42.206Z,13.71
2022-10-26T04:03:09.870Z,13.70
2022-10-26T04:05:37.496Z,13.72
2022-10-26T04:08:05.276Z,13.71
2022-10-26T04:10:33.019Z,13.71
2022-10-26T04:13:02.301Z,13.71
2022-10-26T04:15:30.205Z,13.71
2022-10-26T04:17:58.284Z,13.71
2022-10-26T04:20:26.327Z,13.72
2022-10-26T04:23:01.072Z,13.72
2022-10-26T04:25:31.843Z,13.72
2022-10-26T04:28:02.844Z,13.73
2022-10-26T04:30:31.106Z,13.75
2022-10-26T04:32:58.738Z,13.76
2022-10-26T04:35:26.399Z,13.76
2022-10-26T04:37:58.315Z,13.76
2022-10-26T04:40:26.003Z,13.79
2022-10-26T04:42:53.788Z,13.80
2022-10-26T04:45:23.015Z,13.81
2022-10-26T04:48:00.618Z,13.81
2022-10-26T04:50:28.733Z,13.82
2022-10-26T04:52:56.375Z,13.83
2022-10-26T04:55:24.084Z,13.84
2022-10-26T04:57:54.768Z,13.81
2022-10-26T05:00:26.750Z,13.84
2022-10-26T05:03:00.077Z,13.84
2022-10-26T05:05:27.860Z,13.84
2022-10-26T05:07:55.901Z,13.84
2022-10-26T05:10:23.531Z,13.84
2022-10-26T05:12:52.292Z,13.86
2022-10-26T05:15:20.165Z,13.87
2022-10-26T05:17:49.404Z,13.87
2022-10-26T05:20:17.216Z,13.89
2022-10-26T05:22:44.850Z,13.88
2022-10-26T05:25:12.461Z,13.89
2022-10-26T05:27:40.155Z,13.90
2022-10-26T05:30:09.006Z,13.91
2022-10-26T05:32:36.663Z,13.90
2022-10-26T05:35:06.562Z,13.91
2022-10-26T05:37:34.247Z,13.95
2022-10-26T05:40:01.902Z,13.96
2022-10-26T05:42:29.659Z,13.96
2022-10-26T05:44:57.270Z,13.97
2022-10-26T05:47:24.928Z,13.95
2022-10-26T05:49:52.527Z,13.94
2022-10-26T05:52:21.590Z,13.96
2022-10-26T05:54:49.312Z,13.95
2022-10-26T05:57:17.490Z,13.96
2022-10-26T05:59:45.756Z,13.94
2022-10-26T06:02:20.451Z,13.94
2022-10-26T06:04:48.945Z,13.95
2022-10-26T06:07:18.367Z,13.93
2022-10-26T06:09:48.722Z,13.93
2022-10-26T06:12:19.604Z,13.91
2022-10-26T06:14:48.359Z,13.92
2022-10-26T06:17:28.829Z,13.88
2022-10-26T06:20:08.656Z,13.93
2022-10-26T06:22:43.864Z,13.91
2022-10-26T06:25:22.476Z,13.89
2022-10-26T06:27:55.825Z,13.87
2022-10-26T06:30:23.988Z,13.87
2022-10-26T06:33:01.169Z,13.87
2022-10-26T06:35:37.711Z,13.85
2022-10-26T06:38:09.352Z,13.85
2022-10-26T06:40:40.693Z,13.84
2022-10-26T06:43:13.401Z,13.84
2022-10-26T06:45:42.456Z,13.83
2022-10-26T06:48:11.659Z,13.77
2022-10-26T06:50:44.209Z,13.82
2022-10-26T06:53:20.083Z,13.82
2022-10-26T06:55:51.053Z,13.83
2022-10-26T06:58:20.205Z,13.84
2022-10-26T07:00:49.725Z,13.85
2022-10-26T07:03:17.831Z,13.84
2022-10-26T07:05:45.898Z,13.84
2022-10-26T07:08:13.706Z,13.87
2022-10-26T07:10:42.272Z,13.87
2022-10-26T07:13:11.874Z,13.86
2022-10-26T07:15:40.571Z,13.91
2022-10-26T07:18:09.081Z,13.91
2022-10-26T07:20:38.400Z,13.89
2022-10-26T07:23:08.028Z,13.93
2022-10-26T07:25:38.960Z,13.95
2022-10-26T07:28:07.517Z,13.95
2022-10-26T07:30:36.641Z,13.96
2022-10-26T07:33:06.787Z,13.93
2022-10-26T07:35:34.628Z,13.99
2022-10-26T07:38:02.955Z,14.02
2022-10-26T07:40:30.748Z,14.02
2022-10-26T07:42:59.218Z,14.05
2022-10-26T07:45:27.687Z,14.06
2022-10-26T07:47:56.767Z,14.10
2022-10-26T07:50:25.023Z,14.13
2022-10-26T07:52:52.887Z,14.15
2022-10-26T07:55:20.800Z,14.18
2022-10-26T07:57:51.048Z,14.20
2022-10-26T08:00:22.496Z,14.25
2022-10-26T08:02:50.192Z,14.28
2022-10-26T08:05:19.350Z,14.30
2022-10-26T08:07:47.687Z,14.35
2022-10-26T08:10:16.573Z,14.40
2022-10-26T08:12:44.892Z,14.43
2022-10-26T08:15:12.833Z,14.48
2022-10-26T08:17:40.478Z,14.57
2022-10-26T08:20:09.129Z,14.62
2022-10-26T08:22:38.153Z,14.68
2022-10-26T08:25:06.510Z,14.72
2022-10-26T08:27:34.170Z,14.80
2022-10-26T08:30:01.875Z,14.89
2022-10-26T08:32:29.558Z,14.94
2022-10-26T08:34:57.205Z,15.09
2022-10-26T08:37:25.151Z,15.17
2022-10-26T08:39:55.870Z,15.25
2022-10-26T08:42:30.357Z,15.33
2022-10-26T08:45:00.595Z,15.47
2022-10-26T08:47:30.024Z,15.56
2022-10-26T08:50:01.018Z,15.65
2022-10-26T08:52:32.834Z,15.74
2022-10-26T08:55:04.273Z,15.83
2022-10-26T08:57:36.497Z,15.89
2022-10-26T09:00:06.209Z,15.98
2022-10-26T09:02:33.992Z,16.07
2022-10-26T09:05:01.851Z,16.15
2022-10-26T09:07:38.466Z,16.25
2022-10-26T09:10:17.908Z,16.29
2022-10-26T09:12:49.844Z,16.43
2022-10-26T09:15:25.652Z,16.56
2022-10-26T09:17:59.664Z,16.64
2022-10-26T09:20:42.017Z,16.66
2022-10-26T09:23:20.792Z,16.74
2022-10-26T09:25:56.283Z,16.80
2022-10-26T09:28:24.095Z,16.85
2022-10-26T09:30:58.804Z,16.86
2022-10-26T09:33:26.892Z,16.87
2022-10-26T09:36:00.243Z,16.86
2022-10-26T09:38:30.868Z,16.87
2022-10-26T09:41:04.063Z,16.88
2022-10-26T09:43:37.277Z,16.96
2022-10-26T09:46:05.001Z,17.01
2022-10-26T09:48:36.567Z,17.07
2022-10-26T09:51:04.954Z,17.13
2022-10-26T09:53:32.745Z,17.22
2022-10-26T09:56:06.301Z,17.27
2022-10-26T09:58:37.271Z,17.31
2022-10-26T10:01:05.134Z,17.33
2022-10-26T10:03:33.460Z,17.38
2022-10-26T10:06:17.480Z,17.44
2022-10-26T10:08:46.517Z,17.49
2022-10-26T10:11:16.441Z,17.59
2022-10-26T10:13:45.410Z,17.67
2022-10-26T10:16:21.058Z,17.75
2022-10-26T10:18:54.475Z,17.85
2022-10-26T10:21:22.571Z,17.92
2022-10-26T10:23:53.306Z,17.99
2022-10-26T10:26:22.309Z,18.03
2022-10-26T10:28:58.294Z,18.06
2022-10-26T10:31:29.618Z,18.14
2022-10-26T10:33:57.252Z,18.26
2022-10-26T10:36:29.313Z,18.27
2022-10-26T10:38:57.534Z,18.36
2022-10-26T10:41:29.941Z,18.43
2022-10-26T10:44:07.261Z,18.51
2022-10-26T10:46:35.217Z,18.56
2022-10-26T10:49:04.670Z,18.54
2022-10-26T10:51:37.773Z,18.63
2022-10-26T10:54:06.295Z,18.70
2022-10-26T10:56:42.070Z,18.74
2022-10-26T10:59:21.075Z,18.67
2022-10-26T11:01:51.213Z,18.67
2022-10-26T11:04:37.346Z,18.70
2022-10-26T11:07:06.374Z,18.74
2022-10-26T11:09:37.500Z,18.77
2022-10-26T11:12:11.128Z,18.74
2022-10-26T11:14:43.289Z,18.75
2022-10-26T11:17:18.006Z,18.74
2022-10-26T11:19:49.573Z,18.77
2022-10-26T11:22:22.343Z,18.86
2022-10-26T11:24:51.716Z,18.93
2022-10-26T11:27:25.117Z,19.03
2022-10-26T11:29:56.207Z,19.09
2022-10-26T11:32:25.434Z,19.17
2022-10-26T11:34:56.901Z,19.18
2022-10-26T11:37:29.014Z,19.25
2022-10-26T11:40:03.834Z,19.27
2022-10-26T11:42:37.526Z,19.27
2022-10-26T11:45:11.467Z,19.23
2022-10-26T11:47:42.897Z,19.19
2022-10-26T11:50:17.622Z,19.18
2022-10-26T11:52:49.450Z,19.16
2022-10-26T11:55:18.347Z,19.13
2022-10-26T11:57:48.005Z,19.19
2022-10-26T12:00:18.170Z,19.19
2022-10-26T12:02:49.660Z,19.25
2022-10-26T12:05:24.539Z,19.23
2022-10-26T12:07:54.647Z,19.25
2022-10-26T12:10:31.142Z,19.24
2022-10-26T12:13:05.870Z,19.22
2022-10-26T12:16:01.761Z,19.24
2022-10-26T12:18:50.374Z,19.18
2022-10-26T12:21:18.268Z,19.13
2022-10-26T12:23:56.182Z,19.11
2022-10-26T12:26:54.499Z,19.09
2022-10-26T12:29:38.114Z,19.09
2022-10-26T12:32:29.077Z,19.11
2022-10-26T12:35:01.899Z,19.15
2022-10-26T12:37:37.866Z,19.15
2022-10-26T12:40:40.726Z,19.15
2022-10-26T12:43:36.043Z,19.16
2022-10-26T12:46:43.362Z,19.21
2022-10-26T12:49:58.749Z,19.26
2022-10-26T12:52:34.152Z,19.32
2022-10-26T12:55:25.059Z,19.32
2022-10-26T12:57:59.971Z,19.31
2022-10-26T13:00:28.711Z,19.35
2022-10-26T13:03:08.035Z,19.37
2022-10-26T13:05:58.683Z,19.35
2022-10-26T13:08:28.601Z,19.30
2022-10-26T13:11:04.682Z,19.26
2022-10-26T13:13:33.378Z,19.25
2022-10-26T13:16:01.857Z,19.21
2022-10-26T13:18:30.676Z,19.23
2022-10-26T13:21:11.560Z,19.30
2022-10-26T13:23:42.007Z,19.31
2022-10-26T13:26:12.595Z,19.32
2022-10-26T13:28:51.250Z,19.32
2022-10-26T13:31:55.704Z,19.32
2022-10-26T13:34:24.454Z,19.36
2022-10-26T13:36:55.175Z,19.42
2022-10-26T13:39:27.471Z,19.42
2022-10-26T13:41:55.751Z,19.45
2022-10-26T13:44:26.967Z,19.49
2022-10-26T13:46:59.302Z,19.54
2022-10-26T13:49:31.466Z,19.57
2022-10-26T13:52:02.542Z,19.58
2022-10-26T13:54:36.572Z,19.63
2022-10-26T13:57:14.008Z,19.66
2022-10-26T13:59:44.695Z,19.64
2022-10-26T14:02:18.544Z,19.66
2022-10-26T14:04:49.774Z,19.69
2022-10-26T14:07:22.795Z,19.67
2022-10-26T14:09:57.513Z,19.70
2022-10-26T14:12:26.086Z,19.72
2022-10-26T14:14:54.900Z,19.70
2022-10-26T14:17:25.432Z,19.72
2022-10-26T14:19:53.754Z,19.70
2022-10-26T14:22:23.888Z,19.67
2022-10-26T14:24:53.072Z,19.68
2022-10-26T14:27:23.995Z,19.66
2022-10-26T14:32:39.939Z,19.63
2022-10-26T14:35:13.161Z,19.64
2022-10-26T14:37:45.285Z,19.59
2022-10-26T14:40:17.344Z,19.64
2022-10-26T14:42:50.548Z,19.65
2022-10-26T14:45:47.237Z,19.62
2022-10-26T14:48:22.697Z,19.56
2022-10-26T14:51:07.806Z,19.54
2022-10-26T14:53:38.139Z,19.50
2022-10-26T14:56:07.237Z,19.49
2022-10-26T14:58:36.974Z,19.45
2022-10-26T15:01:27.516Z,19.41
2022-10-26T15:03:58.401Z,19.38
2022-10-26T15:06:38.227Z,19.34
2022-10-26T15:09:06.870Z,19.32
2022-10-26T15:11:35.815Z,19.31
2022-10-26T15:14:04.915Z,19.28
2022-10-26T15:16:35.648Z,19.25
2022-10-26T15:19:10.985Z,19.24
2022-10-26T15:21:41.091Z,19.19
2022-10-26T15:24:33.151Z,19.08
2022-10-26T15:27:05.366Z,19.18
2022-10-26T15:29:42.825Z,19.16
2022-10-26T15:34:14.570Z,19.12
2022-10-26T15:36:43.562Z,19.09
2022-10-26T15:39:11.568Z,19.07
2022-10-26T15:41:45.893Z,19.02
2022-10-26T15:44:16.122Z,19.03
2022-10-26T15:46:44.109Z,18.98
2022-10-26T15:49:18.720Z,18.98
2022-10-26T15:51:47.583Z,18.98
2022-10-26T15:54:15.833Z,18.96
2022-10-26T15:56:44.736Z,18.93
2022-10-26T15:59:15.496Z,18.90
2022-10-26T16:01:43.233Z,18.86
2022-10-26T16:04:12.176Z,18.84
2022-10-26T16:06:42.888Z,18.81
2022-10-26T16:09:14.287Z,18.78
2022-10-26T16:11:41.965Z,18.74
2022-10-26T16:14:10.079Z,18.72
2022-10-26T16:16:38.976Z,18.69
2022-10-26T16:19:29.283Z,18.65
2022-10-26T16:21:55.766Z,18.60
2022-10-26T16:24:23.616Z,18.54
2022-10-26T16:26:51.382Z,18.56
2022-10-26T16:29:19.423Z,18.51
2022-10-26T16:31:47.126Z,18.48
2022-10-26T16:34:15.170Z,18.43
2022-10-26T16:36:42.834Z,18.41
2022-10-26T16:39:13.181Z,18.40
2022-10-26T16:41:40.858Z,18.36
2022-10-26T16:44:08.557Z,18.32
2022-10-26T16:46:36.234Z,18.28
2022-10-26T16:49:03.874Z,18.26
2022-10-26T16:51:31.807Z,18.23
2022-10-26T16:53:59.461Z,18.20
2022-10-26T16:56:30.282Z,18.14
2022-10-26T16:58:58.489Z,18.10
2022-10-26T17:01:26.607Z,18.10
2022-10-26T17:03:54.629Z,18.07
2022-10-26T17:06:22.695Z,18.05
2022-10-26T17:08:50.334Z,18.01
2022-10-26T17:11:19.640Z,18.02
2022-10-26T17:13:49.203Z,18.02
2022-10-26T17:16:20.716Z,17.99
2022-10-26T17:18:48.914Z,17.97
2022-10-26T17:21:17.661Z,17.96
2022-10-26T17:23:45.325Z,17.93
2022-10-26T17:26:14.641Z,17.89
2022-10-26T17:28:42.485Z,17.96
2022-10-26T17:31:13.503Z,17.96
2022-10-26T17:33:42.751Z,17.96
2022-10-26T17:36:11.926Z,17.94
2022-10-26T17:38:40.608Z,17.98
2022-10-26T17:41:10.087Z,17.98
2022-10-26T17:43:39.334Z,18.01
2022-10-26T17:46:08.106Z,18.01
2022-10-26T17:48:37.316Z,17.99
2022-10-26T17:51:07.121Z,18.05
2022-10-26T17:53:34.751Z,18.06
2022-10-26T17:56:02.992Z,18.06
2022-10-26T17:58:30.678Z,18.06
2022-10-26T18:01:01.519Z,18.06
2022-10-26T18:03:29.283Z,18.06
2022-10-26T18:07:32.115Z,18.05
2022-10-26T18:10:13.903Z,18.01
2022-10-26T18:12:47.329Z,18.04
2022-10-26T18:15:15.013Z,18.01
2022-10-26T18:17:42.726Z,18.00
2022-10-26T18:20:11.124Z,18.00
2022-10-26T18:22:40.179Z,17.99
2022-10-26T18:25:08.425Z,17.97
2022-10-26T18:27:36.055Z,17.94
2022-10-26T18:30:03.747Z,17.91
2022-10-26T18:32:31.448Z,17.93
2022-10-26T18:34:59.042Z,17.93
2022-10-26T18:37:26.835Z,17.89
2022-10-26T18:39:55.926Z,17.89
2022-10-26T18:42:23.601Z,17.88
2022-10-26T18:44:51.332Z,17.90
2022-10-26T18:47:19.127Z,17.89
2022-10-26T18:49:46.773Z,17.89
2022-10-26T18:52:14.407Z,17.87
2022-10-26T18:54:42.177Z,17.85
2022-10-26T18:57:11.162Z,17.85
2022-10-26T18:59:38.826Z,17.84
2022-10-26T19:04:34.013Z,17.81
2022-10-26T19:07:01.676Z,17.81
2022-10-26T19:09:29.382Z,17.80
2022-10-26T19:11:59.006Z,17.77
2022-10-26T19:14:30.523Z,17.76
2022-10-26T19:16:58.254Z,17.73
2022-10-26T19:19:26.073Z,17.71
2022-10-26T19:21:53.967Z,17.70
2022-10-26T19:24:23.714Z,17.67
2022-10-26T19:26:52.139Z,17.66
2022-10-26T19:29:20.687Z,17.64
2022-10-26T19:31:52.660Z,17.62
2022-10-26T19:34:20.587Z,17.59
2022-10-26T19:36:48.459Z,17.58
2022-10-26T19:39:16.864Z,17.57
2022-10-26T19:41:45.583Z,17.55
2022-10-26T19:44:14.573Z,17.56
2022-10-26T19:46:43.255Z,17.53
2022-10-26T19:49:13.562Z,17.49
2022-10-26T19:51:41.225Z,17.52
2022-10-26T19:54:08.923Z,17.51
2022-10-26T19:56:37.839Z,17.48
2022-10-26T19:59:05.851Z,17.48
2022-10-26T20:01:33.741Z,17.48
2022-10-26T20:04:03.096Z,17.47
2022-10-26T20:06:32.216Z,17.45
2022-10-26T20:09:00.250Z,17.46
2022-10-26T20:11:28.073Z,17.43
2022-10-26T20:13:56.494Z,17.44
2022-10-26T20:16:24.388Z,17.44
2022-10-26T20:18:52.045Z,17.43
2022-10-26T20:21:19.658Z,17.42
2022-10-26T20:23:48.843Z,17.38
2022-10-26T20:26:19.550Z,17.36
2022-10-26T20:28:47.919Z,17.36
2022-10-26T20:31:15.847Z,17.32
2022-10-26T20:33:43.656Z,17.33
2022-10-26T20:36:11.313Z,17.30
2022-10-26T20:38:40.148Z,17.30
2022-10-26T20:41:11.730Z,17.30
2022-10-26T20:43:39.971Z,17.28
2022-10-26T20:46:08.355Z,17.26
2022-10-26T20:48:38.536Z,17.26
2022-10-26T20:51:08.417Z,17.24
2022-10-26T20:53:37.256Z,17.26
2022-10-26T20:56:07.879Z,17.24
2022-10-26T20:58:40.890Z,17.26
2022-10-26T21:01:13.568Z,17.23
2022-10-26T21:03:41.238Z,17.22
2022-10-26T21:06:11.250Z,17.21
2022-10-26T21:08:38.984Z,17.20
2022-10-26T21:11:06.940Z,17.19
2022-10-26T21:13:34.595Z,17.17
2022-10-26T21:16:06.148Z,17.17
2022-10-26T21:18:33.859Z,17.16
2022-10-26T21:21:01.839Z,17.15
2022-10-26T21:23:32.592Z,17.14
2022-10-26T21:26:00.650Z,17.11
2022-10-26T21:28:33.282Z,17.10
2022-10-26T21:31:02.601Z,17.07
2022-10-26T21:33:32.235Z,17.05
2022-10-26T21:36:00.043Z,17.06
2022-10-26T21:38:27.928Z,17.02
2022-10-26T21:41:03.611Z,17.05
2022-10-26T21:43:31.435Z,17.04
2022-10-26T21:45:59.413Z,17.02
2022-10-26T21:48:27.707Z,17.01
2022-10-26T21:50:57.134Z,17.01
2022-10-26T21:53:24.891Z,17.02
2022-10-26T21:56:00.423Z,16.97
2022-10-26T21:58:28.121Z,17.00
2022-10-26T22:00:55.870Z,17.00
2022-10-26T22:03:23.634Z,16.99
2022-10-26T22:05:54.124Z,17.01
2022-10-26T22:08:23.152Z,17.01
2022-10-26T22:10:50.919Z,16.99
2022-10-26T22:13:18.666Z,17.02
2022-10-26T22:15:46.306Z,17.01
2022-10-26T22:18:13.941Z,16.99
2022-10-26T22:20:41.591Z,16.99
2022-10-26T22:23:10.257Z,16.98
2022-10-26T22:25:39.399Z,16.97
2022-10-26T22:28:07.026Z,16.96
2022-10-26T22:30:37.565Z,16.95
2022-10-26T22:33:05.290Z,16.96
2022-10-26T22:35:32.971Z,16.95
2022-10-26T22:38:00.602Z,16.94
2022-10-26T22:40:28.327Z,16.93
2022-10-26T22:42:57.371Z,16.91
2022-10-26T22:45:25.103Z,16.89
2022-10-26T22:47:52.754Z,16.90
2022-10-26T22:50:20.371Z,16.87
2022-10-26T22:52:48.186Z,16.86
2022-10-26T22:55:16.187Z,16.86
2022-10-26T22:57:43.814Z,16.83
2022-10-26T23:00:14.543Z,16.80
2022-10-26T23:02:42.154Z,16.81
2022-10-26T23:05:10.270Z,16.80
2022-10-26T23:07:37.914Z,16.78
2022-10-26T23:10:06.256Z,16.78
2022-10-26T23:12:33.918Z,16.77
2022-10-26T23:15:01.577Z,16.76
2022-10-26T23:17:30.842Z,16.76
2022-10-26T23:19:58.566Z,16.76
2022-10-26T23:22:26.255Z,16.74
2022-10-26T23:24:53.903Z,16.73
2022-10-26T23:27:21.545Z,16.73
2022-10-26T23:29:49.168Z,16.71
2022-10-26T23:32:16.809Z,16.70
2022-10-26T23:34:45.859Z,16.66
2022-10-26T23:37:13.514Z,16.68
2022-10-26T23:39:41.166Z,16.68
2022-10-26T23:42:08.832Z,16.68
2022-10-26T23:44:36.512Z,16.66
2022-10-26T23:47:04.194Z,16.65
2022-10-26T23:49:32.269Z,16.65
2022-10-26T23:52:01.309Z,16.63
2022-10-26T23:54:28.950Z,16.60
2022-10-26T23:56:56.580Z,16.61
2022-10-26T23:59:24.221Z,16.59
